sensor_id;sensor_type;location;lat;lon;timestamp;P1;durP1;ratioP1;P2;durP2;ratioP2
10191;SDS011;17580;50.850;4.504;2023-06-10T00:01:42;9.57;;;8.67;;
10191;SDS011;17580;50.850;4.504;2023-06-10T00:04:12;9.37;;;8.47;;
10191;SDS011;17580;50.850;4.504;2023-06-10T00:06:39;7.63;;;7.03;;
10191;SDS011;17580;50.850;4.504;2023-06-10T00:09:08;8.50;;;7.77;;
10191;SDS011;17580;50.850;4.504;2023-06-10T00:11:37;8.67;;;7.33;;
10191;SDS011;17580;50.850;4.504;2023-06-10T00:14:04;7.90;;;7.30;;
10191;SDS011;17580;50.850;4.504;2023-06-10T00:16:32;7.60;;;6.97;;
10191;SDS011;17580;50.850;4.504;2023-06-10T00:18:59;7.83;;;7.03;;
10191;SDS011;17580;50.850;4.504;2023-06-10T00:21:27;9.07;;;6.93;;
10191;SDS011;17580;50.850;4.504;2023-06-10T00:23:55;9.17;;;7.43;;
10191;SDS011;17580;50.850;4.504;2023-06-10T00:26:22;6.90;;;6.30;;
10191;SDS011;17580;50.850;4.504;2023-06-10T00:28:52;10.10;;;7.70;;
10191;SDS011;17580;50.850;4.504;2023-06-10T00:31:19;6.73;;;6.23;;
10191;SDS011;17580;50.850;4.504;2023-06-10T00:33:47;7.33;;;6.63;;
10191;SDS011;17580;50.850;4.504;2023-06-10T00:36:14;8.30;;;7.50;;
10191;SDS011;17580;50.850;4.504;2023-06-10T00:38:41;7.57;;;6.87;;
10191;SDS011;17580;50.850;4.504;2023-06-10T00:41:08;6.50;;;5.97;;
10191;SDS011;17580;50.850;4.504;2023-06-10T00:43:35;6.97;;;6.27;;
10191;SDS011;17580;50.850;4.504;2023-06-10T00:46:04;6.50;;;6.00;;
10191;SDS011;17580;50.850;4.504;2023-06-10T00:48:32;6.60;;;6.10;;
10191;SDS011;17580;50.850;4.504;2023-06-10T00:50:59;8.77;;;6.80;;
10191;SDS011;17580;50.850;4.504;2023-06-10T00:53:27;7.27;;;6.67;;
10191;SDS011;17580;50.850;4.504;2023-06-10T00:55:55;6.80;;;6.23;;
10191;SDS011;17580;50.850;4.504;2023-06-10T00:58:22;7.73;;;6.97;;
10191;SDS011;17580;50.850;4.504;2023-06-10T01:00:50;6.57;;;5.97;;
10191;SDS011;17580;50.850;4.504;2023-06-10T01:03:19;11.37;;;6.63;;
10191;SDS011;17580;50.850;4.504;2023-06-10T01:05:47;6.73;;;6.03;;
10191;SDS011;17580;50.850;4.504;2023-06-10T01:08:19;7.83;;;7.03;;
10191;SDS011;17580;50.850;4.504;2023-06-10T01:10:49;8.03;;;6.70;;
10191;SDS011;17580;50.850;4.504;2023-06-10T01:13:17;6.70;;;6.20;;
10191;SDS011;17580;50.850;4.504;2023-06-10T01:15:48;7.17;;;6.57;;
10191;SDS011;17580;50.850;4.504;2023-06-10T01:18:15;7.50;;;6.70;;
10191;SDS011;17580;50.850;4.504;2023-06-10T01:20:44;6.67;;;6.07;;
10191;SDS011;17580;50.850;4.504;2023-06-10T01:23:12;9.07;;;6.03;;
10191;SDS011;17580;50.850;4.504;2023-06-10T01:25:41;7.87;;;7.07;;
10191;SDS011;17580;50.850;4.504;2023-06-10T01:28:12;7.80;;;7.00;;
10191;SDS011;17580;50.850;4.504;2023-06-10T01:30:42;7.80;;;7.00;;
10191;SDS011;17580;50.850;4.504;2023-06-10T01:33:11;7.93;;;7.13;;
10191;SDS011;17580;50.850;4.504;2023-06-10T01:35:41;7.30;;;6.70;;
10191;SDS011;17580;50.850;4.504;2023-06-10T01:38:10;8.13;;;7.40;;
10191;SDS011;17580;50.850;4.504;2023-06-10T01:40:40;7.93;;;7.23;;
10191;SDS011;17580;50.850;4.504;2023-06-10T01:43:08;7.00;;;6.40;;
10191;SDS011;17580;50.850;4.504;2023-06-10T01:45:35;7.60;;;6.87;;
10191;SDS011;17580;50.850;4.504;2023-06-10T01:48:02;6.90;;;6.30;;
10191;SDS011;17580;50.850;4.504;2023-06-10T01:50:29;7.07;;;6.47;;
10191;SDS011;17580;50.850;4.504;2023-06-10T01:52:57;6.10;;;5.53;;
10191;SDS011;17580;50.850;4.504;2023-06-10T01:55:24;6.40;;;5.80;;
10191;SDS011;17580;50.850;4.504;2023-06-10T01:57:52;6.20;;;5.70;;
10191;SDS011;17580;50.850;4.504;2023-06-10T02:00:20;5.83;;;5.33;;
10191;SDS011;17580;50.850;4.504;2023-06-10T02:02:47;5.57;;;5.07;;
10191;SDS011;17580;50.850;4.504;2023-06-10T02:05:14;6.20;;;5.70;;
10191;SDS011;17580;50.850;4.504;2023-06-10T02:07:42;5.53;;;5.13;;
10191;SDS011;17580;50.850;4.504;2023-06-10T02:10:09;6.23;;;5.73;;
10191;SDS011;17580;50.850;4.504;2023-06-10T02:12:36;6.20;;;5.80;;
10191;SDS011;17580;50.850;4.504;2023-06-10T02:15:05;5.83;;;5.43;;
10191;SDS011;17580;50.850;4.504;2023-06-10T02:17:32;5.87;;;5.40;;
10191;SDS011;17580;50.850;4.504;2023-06-10T02:19:59;6.37;;;5.87;;
10191;SDS011;17580;50.850;4.504;2023-06-10T02:22:29;5.73;;;5.33;;
10191;SDS011;17580;50.850;4.504;2023-06-10T02:24:56;6.20;;;5.80;;
10191;SDS011;17580;50.850;4.504;2023-06-10T02:27:23;5.83;;;5.33;;
10191;SDS011;17580;50.850;4.504;2023-06-10T02:29:51;5.70;;;5.30;;
10191;SDS011;17580;50.850;4.504;2023-06-10T02:32:19;6.20;;;5.33;;
10191;SDS011;17580;50.850;4.504;2023-06-10T02:34:46;5.67;;;5.27;;
10191;SDS011;17580;50.850;4.504;2023-06-10T02:37:14;5.40;;;5.00;;
10191;SDS011;17580;50.850;4.504;2023-06-10T02:39:41;5.97;;;5.57;;
10191;SDS011;17580;50.850;4.504;2023-06-10T02:42:09;5.83;;;5.23;;
10191;SDS011;17580;50.850;4.504;2023-06-10T02:44:37;5.97;;;5.47;;
10191;SDS011;17580;50.850;4.504;2023-06-10T02:47:05;5.73;;;5.23;;
10191;SDS011;17580;50.850;4.504;2023-06-10T02:49:33;6.20;;;5.70;;
10191;SDS011;17580;50.850;4.504;2023-06-10T02:52:01;5.97;;;5.53;;
10191;SDS011;17580;50.850;4.504;2023-06-10T02:54:28;5.87;;;5.30;;
10191;SDS011;17580;50.850;4.504;2023-06-10T02:56:55;5.50;;;5.20;;
10191;SDS011;17580;50.850;4.504;2023-06-10T02:59:22;6.27;;;5.70;;
10191;SDS011;17580;50.850;4.504;2023-06-10T03:01:49;5.80;;;5.40;;
10191;SDS011;17580;50.850;4.504;2023-06-10T03:04:16;6.73;;;5.50;;
10191;SDS011;17580;50.850;4.504;2023-06-10T03:06:45;5.57;;;5.27;;
10191;SDS011;17580;50.850;4.504;2023-06-10T03:09:12;6.10;;;5.67;;
10191;SDS011;17580;50.850;4.504;2023-06-10T03:11:40;5.90;;;5.40;;
10191;SDS011;17580;50.850;4.504;2023-06-10T03:14:07;5.53;;;5.23;;
10191;SDS011;17580;50.850;4.504;2023-06-10T03:16:34;6.37;;;5.87;;
10191;SDS011;17580;50.850;4.504;2023-06-10T03:19:05;6.13;;;5.63;;
10191;SDS011;17580;50.850;4.504;2023-06-10T03:21:32;5.57;;;5.17;;
10191;SDS011;17580;50.850;4.504;2023-06-10T03:24:01;7.40;;;6.80;;
10191;SDS011;17580;50.850;4.504;2023-06-10T03:26:28;6.87;;;6.30;;
10191;SDS011;17580;50.850;4.504;2023-06-10T03:28:55;6.23;;;5.83;;
10191;SDS011;17580;50.850;4.504;2023-06-10T03:31:23;6.57;;;6.07;;
10191;SDS011;17580;50.850;4.504;2023-06-10T03:33:50;6.67;;;5.87;;
10191;SDS011;17580;50.850;4.504;2023-06-10T03:36:18;6.33;;;5.83;;
10191;SDS011;17580;50.850;4.504;2023-06-10T03:38:45;6.57;;;5.97;;
10191;SDS011;17580;50.850;4.504;2023-06-10T03:41:13;6.53;;;6.00;;
10191;SDS011;17580;50.850;4.504;2023-06-10T03:43:41;6.50;;;6.00;;
10191;SDS011;17580;50.850;4.504;2023-06-10T03:46:09;7.13;;;6.07;;
10191;SDS011;17580;50.850;4.504;2023-06-10T03:48:36;6.83;;;6.23;;
10191;SDS011;17580;50.850;4.504;2023-06-10T03:51:04;6.47;;;5.93;;
10191;SDS011;17580;50.850;4.504;2023-06-10T03:53:32;6.40;;;5.90;;
10191;SDS011;17580;50.850;4.504;2023-06-10T03:55:59;6.80;;;6.30;;
10191;SDS011;17580;50.850;4.504;2023-06-10T03:58:28;6.27;;;5.77;;
10191;SDS011;17580;50.850;4.504;2023-06-10T04:00:55;6.73;;;6.23;;
10191;SDS011;17580;50.850;4.504;2023-06-10T04:03:22;6.10;;;5.60;;
10191;SDS011;17580;50.850;4.504;2023-06-10T04:05:49;5.77;;;5.37;;
10191;SDS011;17580;50.850;4.504;2023-06-10T04:08:17;8.73;;;5.57;;
10191;SDS011;17580;50.850;4.504;2023-06-10T04:10:45;7.47;;;6.33;;
10191;SDS011;17580;50.850;4.504;2023-06-10T04:13:13;6.70;;;6.10;;
10191;SDS011;17580;50.850;4.504;2023-06-10T04:15:42;7.03;;;6.40;;
10191;SDS011;17580;50.850;4.504;2023-06-10T04:18:09;7.17;;;6.57;;
10191;SDS011;17580;50.850;4.504;2023-06-10T04:20:36;6.37;;;5.87;;
10191;SDS011;17580;50.850;4.504;2023-06-10T04:23:03;8.03;;;7.17;;
10191;SDS011;17580;50.850;4.504;2023-06-10T04:25:31;6.90;;;6.40;;
10191;SDS011;17580;50.850;4.504;2023-06-10T04:27:58;6.63;;;6.03;;
10191;SDS011;17580;50.850;4.504;2023-06-10T04:30:25;6.50;;;6.00;;
10191;SDS011;17580;50.850;4.504;2023-06-10T04:32:54;5.87;;;5.40;;
10191;SDS011;17580;50.850;4.504;2023-06-10T04:35:21;7.00;;;6.17;;
10191;SDS011;17580;50.850;4.504;2023-06-10T04:37:49;7.90;;;6.87;;
10191;SDS011;17580;50.850;4.504;2023-06-10T04:40:16;6.00;;;5.57;;
10191;SDS011;17580;50.850;4.504;2023-06-10T04:42:44;6.10;;;5.60;;
10191;SDS011;17580;50.850;4.504;2023-06-10T04:45:11;6.90;;;6.30;;
10191;SDS011;17580;50.850;4.504;2023-06-10T04:47:38;6.00;;;5.50;;
10191;SDS011;17580;50.850;4.504;2023-06-10T04:50:08;6.33;;;5.83;;
10191;SDS011;17580;50.850;4.504;2023-06-10T04:52:35;6.60;;;6.20;;
10191;SDS011;17580;50.850;4.504;2023-06-10T04:55:02;6.47;;;5.97;;
10191;SDS011;17580;50.850;4.504;2023-06-10T04:57:30;7.63;;;6.90;;
10191;SDS011;17580;50.850;4.504;2023-06-10T04:59:57;6.60;;;6.07;;
10191;SDS011;17580;50.850;4.504;2023-06-10T05:02:24;6.30;;;5.90;;
10191;SDS011;17580;50.850;4.504;2023-06-10T05:04:51;6.60;;;6.10;;
10191;SDS011;17580;50.850;4.504;2023-06-10T05:07:21;6.70;;;6.20;;
10191;SDS011;17580;50.850;4.504;2023-06-10T05:09:48;6.73;;;6.13;;
10191;SDS011;17580;50.850;4.504;2023-06-10T05:12:15;9.47;;;6.33;;
10191;SDS011;17580;50.850;4.504;2023-06-10T05:14:43;7.17;;;6.47;;
10191;SDS011;17580;50.850;4.504;2023-06-10T05:17:11;6.97;;;6.37;;
10191;SDS011;17580;50.850;4.504;2023-06-10T05:19:39;6.03;;;5.50;;
10191;SDS011;17580;50.850;4.504;2023-06-10T05:22:06;7.77;;;6.37;;
10191;SDS011;17580;50.850;4.504;2023-06-10T05:24:35;6.90;;;6.40;;
10191;SDS011;17580;50.850;4.504;2023-06-10T05:27:02;7.20;;;6.50;;
10191;SDS011;17580;50.850;4.504;2023-06-10T05:29:29;7.10;;;6.50;;
10191;SDS011;17580;50.850;4.504;2023-06-10T05:31:57;6.80;;;6.27;;
10191;SDS011;17580;50.850;4.504;2023-06-10T05:34:28;6.60;;;6.10;;
10191;SDS011;17580;50.850;4.504;2023-06-10T05:36:55;6.87;;;5.97;;
10191;SDS011;17580;50.850;4.504;2023-06-10T05:39:22;6.57;;;6.07;;
10191;SDS011;17580;50.850;4.504;2023-06-10T05:41:51;6.73;;;6.03;;
10191;SDS011;17580;50.850;4.504;2023-06-10T05:44:18;6.90;;;6.40;;
10191;SDS011;17580;50.850;4.504;2023-06-10T05:46:45;6.83;;;6.33;;
10191;SDS011;17580;50.850;4.504;2023-06-10T05:49:12;6.77;;;6.27;;
10191;SDS011;17580;50.850;4.504;2023-06-10T05:51:39;6.83;;;6.33;;
10191;SDS011;17580;50.850;4.504;2023-06-10T05:54:07;6.83;;;6.23;;
10191;SDS011;17580;50.850;4.504;2023-06-10T05:56:34;6.23;;;5.83;;
10191;SDS011;17580;50.850;4.504;2023-06-10T05:59:03;6.50;;;6.00;;
10191;SDS011;17580;50.850;4.504;2023-06-10T06:01:30;7.57;;;6.23;;
10191;SDS011;17580;50.850;4.504;2023-06-10T06:03:57;7.07;;;6.57;;
10191;SDS011;17580;50.850;4.504;2023-06-10T06:06:24;6.03;;;5.43;;
10191;SDS011;17580;50.850;4.504;2023-06-10T06:08:51;6.53;;;6.03;;
10191;SDS011;17580;50.850;4.504;2023-06-10T06:11:19;7.90;;;7.00;;
10191;SDS011;17580;50.850;4.504;2023-06-10T06:13:46;6.23;;;5.73;;
10191;SDS011;17580;50.850;4.504;2023-06-10T06:16:15;7.27;;;6.63;;
10191;SDS011;17580;50.850;4.504;2023-06-10T06:18:43;6.53;;;6.03;;
10191;SDS011;17580;50.850;4.504;2023-06-10T06:21:10;5.57;;;5.27;;
10191;SDS011;17580;50.850;4.504;2023-06-10T06:23:37;7.57;;;6.27;;
10191;SDS011;17580;50.850;4.504;2023-06-10T06:26:05;6.87;;;6.37;;
10191;SDS011;17580;50.850;4.504;2023-06-10T06:28:32;6.87;;;6.37;;
10191;SDS011;17580;50.850;4.504;2023-06-10T06:30:59;6.60;;;6.10;;
10191;SDS011;17580;50.850;4.504;2023-06-10T06:33:28;5.97;;;5.57;;
10191;SDS011;17580;50.850;4.504;2023-06-10T06:35:55;6.40;;;5.90;;
10191;SDS011;17580;50.850;4.504;2023-06-10T06:38:22;7.00;;;6.30;;
10191;SDS011;17580;50.850;4.504;2023-06-10T06:40:49;6.00;;;5.50;;
10191;SDS011;17580;50.850;4.504;2023-06-10T06:43:16;6.57;;;5.90;;
10191;SDS011;17580;50.850;4.504;2023-06-10T06:45:44;5.87;;;5.47;;
10191;SDS011;17580;50.850;4.504;2023-06-10T06:48:11;7.00;;;6.30;;
10191;SDS011;17580;50.850;4.504;2023-06-10T06:50:40;6.57;;;6.07;;
10191;SDS011;17580;50.850;4.504;2023-06-10T06:53:07;7.37;;;6.23;;
10191;SDS011;17580;50.850;4.504;2023-06-10T06:55:35;5.87;;;5.37;;
10191;SDS011;17580;50.850;4.504;2023-06-10T06:58:02;7.17;;;6.50;;
10191;SDS011;17580;50.850;4.504;2023-06-10T07:00:29;8.73;;;6.57;;
10191;SDS011;17580;50.850;4.504;2023-06-10T07:02:56;6.17;;;5.70;;
10191;SDS011;17580;50.850;4.504;2023-06-10T07:05:24;9.23;;;6.80;;
10191;SDS011;17580;50.850;4.504;2023-06-10T07:07:53;6.10;;;5.53;;
10191;SDS011;17580;50.850;4.504;2023-06-10T07:10:21;6.20;;;5.70;;
10191;SDS011;17580;50.850;4.504;2023-06-10T07:12:48;9.70;;;6.00;;
10191;SDS011;17580;50.850;4.504;2023-06-10T07:15:15;6.43;;;5.93;;
10191;SDS011;17580;50.850;4.504;2023-06-10T07:17:43;6.47;;;5.87;;
10191;SDS011;17580;50.850;4.504;2023-06-10T07:20:10;6.40;;;5.90;;
10191;SDS011;17580;50.850;4.504;2023-06-10T07:22:38;6.10;;;5.67;;
10191;SDS011;17580;50.850;4.504;2023-06-10T07:25:07;9.87;;;6.30;;
10191;SDS011;17580;50.850;4.504;2023-06-10T07:27:34;7.67;;;6.97;;
10191;SDS011;17580;50.850;4.504;2023-06-10T07:30:02;6.50;;;5.97;;
10191;SDS011;17580;50.850;4.504;2023-06-10T07:32:29;7.03;;;6.27;;
10191;SDS011;17580;50.850;4.504;2023-06-10T07:34:57;6.90;;;6.07;;
10191;SDS011;17580;50.850;4.504;2023-06-10T07:37:24;5.93;;;5.47;;
10191;SDS011;17580;50.850;4.504;2023-06-10T07:39:51;6.03;;;5.53;;
10191;SDS011;17580;50.850;4.504;2023-06-10T07:42:20;6.60;;;6.00;;
10191;SDS011;17580;50.850;4.504;2023-06-10T07:44:47;6.40;;;5.90;;
10191;SDS011;17580;50.850;4.504;2023-06-10T07:47:14;6.50;;;5.50;;
10191;SDS011;17580;50.850;4.504;2023-06-10T07:49:41;7.43;;;6.83;;
10191;SDS011;17580;50.850;4.504;2023-06-10T07:52:09;7.17;;;6.63;;
10191;SDS011;17580;50.850;4.504;2023-06-10T07:54:36;6.53;;;5.73;;
10191;SDS011;17580;50.850;4.504;2023-06-10T07:57:03;6.37;;;5.77;;
10191;SDS011;17580;50.850;4.504;2023-06-10T07:59:33;7.17;;;5.80;;
10191;SDS011;17580;50.850;4.504;2023-06-10T08:02:00;6.33;;;5.53;;
10191;SDS011;17580;50.850;4.504;2023-06-10T08:04:27;8.43;;;6.10;;
10191;SDS011;17580;50.850;4.504;2023-06-10T08:06:56;7.20;;;6.50;;
10191;SDS011;17580;50.850;4.504;2023-06-10T08:09:23;6.73;;;5.93;;
10191;SDS011;17580;50.850;4.504;2023-06-10T08:11:50;5.53;;;5.13;;
10191;SDS011;17580;50.850;4.504;2023-06-10T08:14:17;6.60;;;6.10;;
10191;SDS011;17580;50.850;4.504;2023-06-10T08:16:46;5.80;;;5.30;;
10191;SDS011;17580;50.850;4.504;2023-06-10T08:19:13;5.47;;;4.97;;
10191;SDS011;17580;50.850;4.504;2023-06-10T08:21:40;5.40;;;5.00;;
10191;SDS011;17580;50.850;4.504;2023-06-10T08:24:08;5.53;;;5.17;;
10191;SDS011;17580;50.850;4.504;2023-06-10T08:26:35;6.53;;;5.80;;
10191;SDS011;17580;50.850;4.504;2023-06-10T08:29:03;5.83;;;5.43;;
10191;SDS011;17580;50.850;4.504;2023-06-10T08:31:30;6.50;;;5.90;;
10191;SDS011;17580;50.850;4.504;2023-06-10T08:33:59;6.60;;;5.40;;
10191;SDS011;17580;50.850;4.504;2023-06-10T08:36:26;5.77;;;5.37;;
10191;SDS011;17580;50.850;4.504;2023-06-10T08:38:54;5.60;;;5.20;;
10191;SDS011;17580;50.850;4.504;2023-06-10T08:41:21;5.07;;;4.57;;
10191;SDS011;17580;50.850;4.504;2023-06-10T08:43:53;7.17;;;5.80;;
10191;SDS011;17580;50.850;4.504;2023-06-10T08:46:21;5.63;;;5.13;;
10191;SDS011;17580;50.850;4.504;2023-06-10T08:48:48;5.00;;;4.70;;
10191;SDS011;17580;50.850;4.504;2023-06-10T08:51:18;6.10;;;5.27;;
10191;SDS011;17580;50.850;4.504;2023-06-10T08:53:47;5.83;;;5.20;;
10191;SDS011;17580;50.850;4.504;2023-06-10T08:56:16;5.67;;;5.13;;
10191;SDS011;17580;50.850;4.504;2023-06-10T08:58:44;5.10;;;4.80;;
10191;SDS011;17580;50.850;4.504;2023-06-10T09:01:11;6.10;;;5.00;;
10191;SDS011;17580;50.850;4.504;2023-06-10T09:03:39;5.47;;;5.07;;
10191;SDS011;17580;50.850;4.504;2023-06-10T09:06:06;6.17;;;5.67;;
10191;SDS011;17580;50.850;4.504;2023-06-10T09:08:35;5.63;;;5.20;;
10191;SDS011;17580;50.850;4.504;2023-06-10T09:11:02;6.53;;;5.63;;
10191;SDS011;17580;50.850;4.504;2023-06-10T09:13:30;5.47;;;4.97;;
10191;SDS011;17580;50.850;4.504;2023-06-10T09:15:57;5.10;;;4.70;;
10191;SDS011;17580;50.850;4.504;2023-06-10T09:18:26;5.53;;;5.13;;
10191;SDS011;17580;50.850;4.504;2023-06-10T09:20:53;5.80;;;5.30;;
10191;SDS011;17580;50.850;4.504;2023-06-10T09:23:21;5.13;;;4.83;;
10191;SDS011;17580;50.850;4.504;2023-06-10T09:25:56;5.27;;;4.77;;
10191;SDS011;17580;50.850;4.504;2023-06-10T09:28:24;5.57;;;5.18;;
10191;SDS011;17580;50.850;4.504;2023-06-10T09:31:01;5.25;;;4.85;;
10191;SDS011;17580;50.850;4.504;2023-06-10T09:33:29;5.95;;;5.45;;
10191;SDS011;17580;50.850;4.504;2023-06-10T09:35:56;6.55;;;5.95;;
10191;SDS011;17580;50.850;4.504;2023-06-10T09:38:29;5.65;;;5.15;;
10191;SDS011;17580;50.850;4.504;2023-06-10T09:40:58;5.45;;;4.95;;
10191;SDS011;17580;50.850;4.504;2023-06-10T09:43:38;5.53;;;5.13;;
10191;SDS011;17580;50.850;4.504;2023-06-10T09:46:06;6.30;;;5.65;;
10191;SDS011;17580;50.850;4.504;2023-06-10T09:48:39;7.50;;;5.38;;
10191;SDS011;17580;50.850;4.504;2023-06-10T09:51:08;5.43;;;4.93;;
10191;SDS011;17580;50.850;4.504;2023-06-10T09:53:36;5.57;;;5.20;;
10191;SDS011;17580;50.850;4.504;2023-06-10T09:56:05;5.25;;;4.95;;
10191;SDS011;17580;50.850;4.504;2023-06-10T09:58:36;5.35;;;4.95;;
10191;SDS011;17580;50.850;4.504;2023-06-10T10:01:08;6.88;;;5.28;;
10191;SDS011;17580;50.850;4.504;2023-06-10T10:03:42;5.22;;;4.75;;
10191;SDS011;17580;50.850;4.504;2023-06-10T10:06:11;5.47;;;5.00;;
10191;SDS011;17580;50.850;4.504;2023-06-10T10:08:39;5.03;;;4.63;;
10191;SDS011;17580;50.850;4.504;2023-06-10T10:11:09;5.40;;;5.00;;
10191;SDS011;17580;50.850;4.504;2023-06-10T10:13:37;8.65;;;5.22;;
10191;SDS011;17580;50.850;4.504;2023-06-10T10:16:06;5.82;;;5.30;;
10191;SDS011;17580;50.850;4.504;2023-06-10T10:18:36;7.15;;;5.70;;
10191;SDS011;17580;50.850;4.504;2023-06-10T10:21:08;5.70;;;5.30;;
10191;SDS011;17580;50.850;4.504;2023-06-10T10:23:39;5.47;;;5.07;;
10191;SDS011;17580;50.850;4.504;2023-06-10T10:26:07;5.93;;;5.53;;
10191;SDS011;17580;50.850;4.504;2023-06-10T10:28:41;10.50;;;9.10;;
10191;SDS011;17580;50.850;4.504;2023-06-10T10:31:09;5.25;;;4.93;;
10191;SDS011;17580;50.850;4.504;2023-06-10T10:33:40;5.75;;;5.35;;
10191;SDS011;17580;50.850;4.504;2023-06-10T10:36:07;5.43;;;5.13;;
10191;SDS011;17580;50.850;4.504;2023-06-10T10:38:35;5.78;;;5.25;;
10191;SDS011;17580;50.850;4.504;2023-06-10T10:41:02;7.25;;;5.30;;
10191;SDS011;17580;50.850;4.504;2023-06-10T10:43:31;6.45;;;5.22;;
10191;SDS011;17580;50.850;4.504;2023-06-10T10:46:01;5.70;;;5.30;;
10191;SDS011;17580;50.850;4.504;2023-06-10T10:48:32;5.68;;;5.32;;
10191;SDS011;17580;50.850;4.504;2023-06-10T10:51:00;6.72;;;5.05;;
10191;SDS011;17580;50.850;4.504;2023-06-10T10:53:27;11.80;;;5.32;;
10191;SDS011;17580;50.850;4.504;2023-06-10T10:55:58;5.45;;;5.00;;
10191;SDS011;17580;50.850;4.504;2023-06-10T10:58:25;4.72;;;4.43;;
10191;SDS011;17580;50.850;4.504;2023-06-10T11:00:53;6.32;;;5.82;;
10191;SDS011;17580;50.850;4.504;2023-06-10T11:03:22;5.40;;;4.93;;
10191;SDS011;17580;50.850;4.504;2023-06-10T11:05:54;4.55;;;4.30;;
10191;SDS011;17580;50.850;4.504;2023-06-10T11:11:17;5.60;;;5.10;;
10191;SDS011;17580;50.850;4.504;2023-06-10T11:13:57;4.95;;;4.70;;
10191;SDS011;17580;50.850;4.504;2023-06-10T11:16:25;5.78;;;5.47;;
10191;SDS011;17580;50.850;4.504;2023-06-10T11:18:55;5.53;;;5.22;;
10191;SDS011;17580;50.850;4.504;2023-06-10T11:21:23;7.78;;;5.03;;
10191;SDS011;17580;50.850;4.504;2023-06-10T11:23:50;5.60;;;5.30;;
10191;SDS011;17580;50.850;4.504;2023-06-10T11:26:19;5.70;;;5.20;;
10191;SDS011;17580;50.850;4.504;2023-06-10T11:31:46;4.97;;;4.60;;
10191;SDS011;17580;50.850;4.504;2023-06-10T11:34:20;4.82;;;4.40;;
10191;SDS011;17580;50.850;4.504;2023-06-10T11:36:49;5.30;;;4.90;;
10191;SDS011;17580;50.850;4.504;2023-06-10T11:39:16;5.13;;;4.82;;
10191;SDS011;17580;50.850;4.504;2023-06-10T11:41:45;5.30;;;4.93;;
10191;SDS011;17580;50.850;4.504;2023-06-10T11:44:12;5.32;;;4.93;;
10191;SDS011;17580;50.850;4.504;2023-06-10T11:46:40;5.65;;;5.10;;
10191;SDS011;17580;50.850;4.504;2023-06-10T11:49:08;5.53;;;5.13;;
10191;SDS011;17580;50.850;4.504;2023-06-10T11:51:37;5.80;;;5.30;;
10191;SDS011;17580;50.850;4.504;2023-06-10T11:54:08;5.78;;;5.38;;
10191;SDS011;17580;50.850;4.504;2023-06-10T11:56:35;5.47;;;5.15;;
10191;SDS011;17580;50.850;4.504;2023-06-10T11:59:02;5.88;;;5.47;;
10191;SDS011;17580;50.850;4.504;2023-06-10T12:01:31;5.60;;;5.25;;
10191;SDS011;17580;50.850;4.504;2023-06-10T12:03:59;5.35;;;5.05;;
10191;SDS011;17580;50.850;4.504;2023-06-10T12:06:27;5.78;;;5.28;;
10191;SDS011;17580;50.850;4.504;2023-06-10T12:08:55;5.40;;;4.90;;
10191;SDS011;17580;50.850;4.504;2023-06-10T12:11:23;5.82;;;5.43;;
10191;SDS011;17580;50.850;4.504;2023-06-10T12:13:50;5.53;;;5.13;;
10191;SDS011;17580;50.850;4.504;2023-06-10T12:16:17;5.57;;;5.07;;
10191;SDS011;17580;50.850;4.504;2023-06-10T12:18:45;5.57;;;5.07;;
10191;SDS011;17580;50.850;4.504;2023-06-10T12:21:20;6.05;;;5.65;;
10191;SDS011;17580;50.850;4.504;2023-06-10T12:24:04;5.97;;;5.50;;
10191;SDS011;17580;50.850;4.504;2023-06-10T12:26:36;5.80;;;5.40;;
10191;SDS011;17580;50.850;4.504;2023-06-10T12:29:12;6.50;;;5.53;;
10191;SDS011;17580;50.850;4.504;2023-06-10T12:31:55;5.20;;;4.90;;
10191;SDS011;17580;50.850;4.504;2023-06-10T12:34:32;5.88;;;5.47;;
10191;SDS011;17580;50.850;4.504;2023-06-10T12:36:59;6.95;;;5.00;;
10191;SDS011;17580;50.850;4.504;2023-06-10T12:39:29;7.47;;;5.20;;
10191;SDS011;17580;50.850;4.504;2023-06-10T12:41:57;5.03;;;4.63;;
10191;SDS011;17580;50.850;4.504;2023-06-10T12:44:33;5.47;;;5.07;;
10191;SDS011;17580;50.850;4.504;2023-06-10T12:47:06;5.72;;;5.38;;
10191;SDS011;17580;50.850;4.504;2023-06-10T12:49:34;5.72;;;5.20;;
10191;SDS011;17580;50.850;4.504;2023-06-10T12:52:02;5.18;;;4.78;;
10191;SDS011;17580;50.850;4.504;2023-06-10T12:54:31;5.90;;;5.30;;
10191;SDS011;17580;50.850;4.504;2023-06-10T12:56:58;5.68;;;5.28;;
10191;SDS011;17580;50.850;4.504;2023-06-10T12:59:26;5.50;;;4.93;;
10191;SDS011;17580;50.850;4.504;2023-06-10T13:01:53;5.45;;;5.15;;
10191;SDS011;17580;50.850;4.504;2023-06-10T13:04:21;6.38;;;5.53;;
10191;SDS011;17580;50.850;4.504;2023-06-10T13:06:48;6.15;;;5.53;;
10191;SDS011;17580;50.850;4.504;2023-06-10T13:09:15;5.47;;;5.18;;
10191;SDS011;17580;50.850;4.504;2023-06-10T13:11:44;5.32;;;4.82;;
10191;SDS011;17580;50.850;4.504;2023-06-10T13:14:11;8.00;;;5.65;;
10191;SDS011;17580;50.850;4.504;2023-06-10T13:16:38;5.80;;;5.30;;
10191;SDS011;17580;50.850;4.504;2023-06-10T13:19:06;5.30;;;5.00;;
10191;SDS011;17580;50.850;4.504;2023-06-10T13:21:33;5.57;;;5.18;;
10191;SDS011;17580;50.850;4.504;2023-06-10T13:24:00;5.50;;;4.80;;
10191;SDS011;17580;50.850;4.504;2023-06-10T13:26:28;5.82;;;5.43;;
10191;SDS011;17580;50.850;4.504;2023-06-10T13:28:57;7.80;;;5.65;;
10191;SDS011;17580;50.850;4.504;2023-06-10T13:31:24;5.78;;;5.25;;
10191;SDS011;17580;50.850;4.504;2023-06-10T13:33:51;5.47;;;4.97;;
10191;SDS011;17580;50.850;4.504;2023-06-10T13:36:18;5.22;;;4.93;;
10191;SDS011;17580;50.850;4.504;2023-06-10T13:38:45;5.40;;;4.80;;
10191;SDS011;17580;50.850;4.504;2023-06-10T13:41:13;5.75;;;5.38;;
10191;SDS011;17580;50.850;4.504;2023-06-10T13:43:41;5.50;;;5.13;;
10191;SDS011;17580;50.850;4.504;2023-06-10T13:46:09;6.07;;;5.68;;
10191;SDS011;17580;50.850;4.504;2023-06-10T13:48:36;6.40;;;5.80;;
10191;SDS011;17580;50.850;4.504;2023-06-10T13:51:04;5.35;;;4.95;;
10191;SDS011;17580;50.850;4.504;2023-06-10T13:53:31;5.68;;;5.18;;
10191;SDS011;17580;50.850;4.504;2023-06-10T13:55:59;5.65;;;5.25;;
10191;SDS011;17580;50.850;4.504;2023-06-10T13:58:26;6.43;;;5.30;;
10191;SDS011;17580;50.850;4.504;2023-06-10T14:00:54;5.35;;;5.05;;
10191;SDS011;17580;50.850;4.504;2023-06-10T14:03:22;6.50;;;5.63;;
10191;SDS011;17580;50.850;4.504;2023-06-10T14:05:50;6.25;;;5.75;;
10191;SDS011;17580;50.850;4.504;2023-06-10T14:08:17;8.20;;;6.90;;
10191;SDS011;17580;50.850;4.504;2023-06-10T14:10:45;5.50;;;5.05;;
10191;SDS011;17580;50.850;4.504;2023-06-10T14:13:13;5.75;;;5.25;;
10191;SDS011;17580;50.850;4.504;2023-06-10T14:15:40;5.90;;;5.50;;
10191;SDS011;17580;50.850;4.504;2023-06-10T14:18:07;5.60;;;5.20;;
10191;SDS011;17580;50.850;4.504;2023-06-10T14:20:36;6.35;;;5.78;;
10191;SDS011;17580;50.850;4.504;2023-06-10T14:23:03;8.52;;;5.63;;
10191;SDS011;17580;50.850;4.504;2023-06-10T14:25:30;6.10;;;5.47;;
10191;SDS011;17580;50.850;4.504;2023-06-10T14:27:58;5.68;;;5.18;;
10191;SDS011;17580;50.850;4.504;2023-06-10T14:30:25;5.15;;;4.85;;
10191;SDS011;17580;50.850;4.504;2023-06-10T14:32:52;5.15;;;4.85;;
10191;SDS011;17580;50.850;4.504;2023-06-10T14:35:19;5.97;;;5.38;;
10191;SDS011;17580;50.850;4.504;2023-06-10T14:37:48;5.35;;;4.82;;
10191;SDS011;17580;50.850;4.504;2023-06-10T14:40:15;6.03;;;5.45;;
10191;SDS011;17580;50.850;4.504;2023-06-10T14:42:43;5.97;;;5.50;;
10191;SDS011;17580;50.850;4.504;2023-06-10T14:45:10;5.90;;;5.40;;
10191;SDS011;17580;50.850;4.504;2023-06-10T14:47:37;5.97;;;5.43;;
10191;SDS011;17580;50.850;4.504;2023-06-10T14:50:04;5.05;;;4.75;;
10191;SDS011;17580;50.850;4.504;2023-06-10T14:52:32;5.25;;;4.95;;
10191;SDS011;17580;50.850;4.504;2023-06-10T14:55:00;11.93;;;6.40;;
10191;SDS011;17580;50.850;4.504;2023-06-10T14:57:30;7.60;;;5.40;;
10191;SDS011;17580;50.850;4.504;2023-06-10T14:59:57;5.10;;;4.70;;